createdAt,value
2022-09-24T00:01:39.978Z,13.80
2022-09-24T00:04:11.644Z,13.80
2022-09-24T00:06:44.802Z,13.70
2022-09-24T00:09:17.153Z,13.70
2022-09-24T00:11:45.625Z,13.60
2022-09-24T00:14:13.204Z,13.50
2022-09-24T00:16:41.162Z,13.60
2022-09-24T00:19:08.059Z,13.60
2022-09-24T00:21:37.602Z,13.60
2022-09-24T00:24:11.182Z,13.60
2022-09-24T00:26:49.867Z,13.60
2022-09-24T00:29:20.286Z,13.60
2022-09-24T00:31:47.670Z,13.60
2022-09-24T00:34:14.768Z,13.50
2022-09-24T00:36:41.648Z,13.50
2022-09-24T00:39:08.838Z,13.50
2022-09-24T00:41:38.012Z,13.50
2022-09-24T00:44:45.896Z,13.50
2022-09-24T00:47:15.505Z,13.50
2022-09-24T00:49:43.055Z,13.40
2022-09-24T00:52:09.960Z,13.40
2022-09-24T00:54:37.500Z,13.40
2022-09-24T00:57:04.720Z,13.40
2022-09-24T00:59:31.592Z,13.30
2022-09-24T01:01:59.365Z,13.20
2022-09-24T01:04:27.957Z,13.20
2022-09-24T01:06:55.809Z,13.10
2022-09-24T01:09:26.031Z,13.10
2022-09-24T01:12:11.367Z,13.10
2022-09-24T01:14:50.131Z,13.10
2022-09-24T01:17:35.464Z,13.10
2022-09-24T01:20:31.106Z,13.20
2022-09-24T01:23:24.301Z,13.20
2022-09-24T01:26:32.322Z,13.20
2022-09-24T01:29:37.649Z,13.30
2022-09-24T01:32:08.827Z,13.30
2022-09-24T01:34:45.176Z,13.30
2022-09-24T01:37:15.827Z,13.30
2022-09-24T01:39:45.384Z,13.30
2022-09-24T01:42:13.624Z,13.40
2022-09-24T01:44:44.340Z,13.30
2022-09-24T01:47:18.525Z,13.40
2022-09-24T01:49:46.036Z,13.40
2022-09-24T01:52:16.659Z,13.50
2022-09-24T01:54:50.928Z,13.40
2022-09-24T01:57:23.898Z,13.40
2022-09-24T02:00:07.509Z,13.40
2022-09-24T02:02:45.264Z,13.40
2022-09-24T02:05:16.335Z,13.40
2022-09-24T02:07:47.361Z,13.40
2022-09-24T02:10:15.974Z,13.30
2022-09-24T02:12:46.902Z,13.40
2022-09-24T02:15:17.415Z,13.30
2022-09-24T02:17:50.276Z,13.30
2022-09-24T02:20:21.657Z,13.30
2022-09-24T02:22:50.127Z,13.30
2022-09-24T02:25:21.262Z,13.30
2022-09-24T02:27:48.031Z,13.30
2022-09-24T02:30:14.979Z,13.30
2022-09-24T02:32:44.100Z,13.40
2022-09-24T02:35:12.412Z,13.30
2022-09-24T02:37:41.646Z,13.30
2022-09-24T02:40:11.579Z,13.30
2022-09-24T02:42:39.310Z,13.40
2022-09-24T02:45:06.577Z,13.40
2022-09-24T02:47:33.624Z,13.40
2022-09-24T02:50:00.945Z,13.40
2022-09-24T02:52:28.175Z,13.50
2022-09-24T02:54:54.964Z,13.60
2022-09-24T02:57:21.810Z,13.60
2022-09-24T02:59:48.658Z,13.50
2022-09-24T03:02:15.576Z,13.50
2022-09-24T03:04:42.657Z,13.50
2022-09-24T03:07:10.325Z,13.40
2022-09-24T03:09:37.121Z,13.40
2022-09-24T03:12:05.120Z,13.30
2022-09-24T03:14:32.033Z,13.40
2022-09-24T03:16:58.838Z,13.30
2022-09-24T03:19:25.698Z,13.30
2022-09-24T03:21:52.461Z,13.30
2022-09-24T03:24:19.301Z,13.30
2022-09-24T03:26:46.113Z,13.30
2022-09-24T03:29:13.017Z,13.20
2022-09-24T03:31:39.879Z,13.30
2022-09-24T03:34:06.829Z,13.30
2022-09-24T03:36:33.993Z,13.30
2022-09-24T03:39:00.890Z,13.30
2022-09-24T03:41:28.376Z,13.30
2022-09-24T03:43:55.978Z,13.20
2022-09-24T03:46:28.395Z,13.30
2022-09-24T03:48:56.206Z,13.30
2022-09-24T03:51:23.028Z,13.20
2022-09-24T03:53:49.900Z,13.20
2022-09-24T03:56:16.854Z,13.20
2022-09-24T03:58:47.608Z,13.20
2022-09-24T04:01:21.678Z,13.10
2022-09-24T04:03:50.026Z,13.20
2022-09-24T04:06:20.695Z,13.10
2022-09-24T04:08:50.478Z,13.20
2022-09-24T04:11:17.248Z,13.10
2022-09-24T04:13:44.159Z,13.20
2022-09-24T04:16:11.016Z,13.20
2022-09-24T04:18:39.419Z,13.30
2022-09-24T04:21:06.974Z,13.20
2022-09-24T04:23:34.078Z,13.10
2022-09-24T04:26:02.446Z,13.10
2022-09-24T04:28:30.160Z,13.10
2022-09-24T04:30:57.156Z,13.10
2022-09-24T04:33:24.083Z,13.10
2022-09-24T04:35:50.896Z,13.10
2022-09-24T04:38:18.704Z,13.10
2022-09-24T04:40:46.554Z,13.10
2022-09-24T04:43:13.497Z,13.10
2022-09-24T04:45:40.345Z,13.10
2022-09-24T04:48:07.244Z,13.20
2022-09-24T04:50:34.428Z,13.20
2022-09-24T04:53:02.522Z,13.20
2022-09-24T04:55:29.379Z,13.20
2022-09-24T04:57:59.319Z,13.20
2022-09-24T05:00:26.282Z,13.20
2022-09-24T05:03:00.640Z,13.20
2022-09-24T05:05:28.251Z,13.10
2022-09-24T05:07:56.955Z,13.20
2022-09-24T05:10:24.853Z,13.20
2022-09-24T05:12:52.368Z,13.10
2022-09-24T05:15:19.990Z,13.20
2022-09-24T05:17:47.649Z,13.20
2022-09-24T05:20:16.897Z,13.20
2022-09-24T05:22:45.497Z,13.20
2022-09-24T05:25:14.564Z,13.20
2022-09-24T05:27:45.612Z,13.20
2022-09-24T05:30:12.960Z,13.20
2022-09-24T05:32:40.371Z,13.10
2022-09-24T05:35:10.559Z,13.10
2022-09-24T05:37:38.401Z,13.20
2022-09-24T05:40:25.084Z,13.30
2022-09-24T05:42:52.393Z,13.30
2022-09-24T05:45:19.184Z,13.30
2022-09-24T05:47:46.571Z,13.20
2022-09-24T05:50:14.020Z,13.30
2022-09-24T05:52:41.108Z,13.20
2022-09-24T05:55:09.367Z,13.30
2022-09-24T05:57:36.699Z,13.30
2022-09-24T06:00:05.382Z,13.30
2022-09-24T06:02:32.290Z,13.30
2022-09-24T06:04:59.227Z,13.20
2022-09-24T06:07:25.995Z,13.20
2022-09-24T06:09:52.772Z,13.30
2022-09-24T06:12:19.657Z,13.30
2022-09-24T06:14:46.471Z,13.30
2022-09-24T06:17:13.273Z,13.20
2022-09-24T06:19:40.703Z,13.20
2022-09-24T06:22:07.607Z,13.20
2022-09-24T06:24:34.990Z,13.30
2022-09-24T06:27:01.811Z,13.30
2022-09-24T06:29:28.658Z,13.40
2022-09-24T06:31:55.578Z,13.30
2022-09-24T06:34:22.483Z,13.30
2022-09-24T06:36:49.326Z,13.30
2022-09-24T06:39:16.182Z,13.40
2022-09-24T06:41:43.082Z,13.30
2022-09-24T06:44:09.914Z,13.30
2022-09-24T06:46:36.985Z,13.30
2022-09-24T06:49:03.925Z,13.40
2022-09-24T06:51:30.801Z,13.40
2022-09-24T06:53:57.682Z,13.50
2022-09-24T06:56:24.721Z,13.40
2022-09-24T06:58:51.675Z,13.50
2022-09-24T07:01:18.657Z,13.40
2022-09-24T07:03:45.789Z,13.30
2022-09-24T07:06:12.730Z,13.40
2022-09-24T07:08:39.574Z,13.30
2022-09-24T07:11:06.879Z,13.40
2022-09-24T07:13:34.121Z,13.40
2022-09-24T07:16:04.152Z,13.40
2022-09-24T07:18:31.247Z,13.40
2022-09-24T07:20:58.297Z,13.40
2022-09-24T07:23:25.587Z,13.40
2022-09-24T07:25:56.370Z,13.40
2022-09-24T07:28:23.390Z,13.40
2022-09-24T07:30:57.633Z,13.40
2022-09-24T07:33:24.617Z,13.40
2022-09-24T07:35:51.707Z,13.40
2022-09-24T07:38:19.618Z,13.40
2022-09-24T07:40:47.121Z,13.50
2022-09-24T07:43:14.952Z,13.50
2022-09-24T07:45:43.002Z,13.50
2022-09-24T07:48:11.294Z,13.50
2022-09-24T07:50:42.617Z,13.50
2022-09-24T07:53:12.784Z,13.50
2022-09-24T07:55:41.549Z,13.50
2022-09-24T07:58:11.965Z,13.60
2022-09-24T08:00:39.228Z,13.80
2022-09-24T08:03:07.790Z,13.90
2022-09-24T08:05:35.607Z,13.90
2022-09-24T08:08:02.751Z,13.90
2022-09-24T08:10:30.645Z,13.90
2022-09-24T08:13:02.798Z,14.00
2022-09-24T08:15:30.687Z,14.00
2022-09-24T08:18:04.985Z,14.10
2022-09-24T08:20:36.205Z,14.10
2022-09-24T08:23:10.225Z,14.00
2022-09-24T08:25:44.125Z,14.00
2022-09-24T08:28:12.578Z,14.00
2022-09-24T08:30:40.670Z,14.10
2022-09-24T08:33:08.082Z,13.90
2022-09-24T08:35:36.259Z,13.90
2022-09-24T08:38:03.740Z,13.90
2022-09-24T08:40:36.274Z,13.90
2022-09-24T08:43:26.067Z,13.80
2022-09-24T08:46:17.586Z,13.80
2022-09-24T08:48:53.073Z,13.80
2022-09-24T08:51:22.318Z,13.80
2022-09-24T08:54:24.296Z,13.90
2022-09-24T08:56:53.144Z,13.90
2022-09-24T08:59:34.006Z,13.90
2022-09-24T09:02:07.711Z,13.90
2022-09-24T09:05:02.819Z,13.90
2022-09-24T09:07:35.181Z,13.90
2022-09-24T09:10:09.893Z,13.90
2022-09-24T09:12:42.402Z,13.80
2022-09-24T09:15:18.233Z,13.80
2022-09-24T09:17:56.366Z,13.80
2022-09-24T09:20:41.234Z,13.90
2022-09-24T09:23:21.364Z,14.00
2022-09-24T09:25:57.329Z,14.00
2022-09-24T09:28:27.061Z,14.00
2022-09-24T09:31:17.180Z,14.10
2022-09-24T09:33:47.663Z,14.10
2022-09-24T09:36:19.082Z,14.10
2022-09-24T09:39:09.947Z,14.10
2022-09-24T09:41:48.567Z,14.00
2022-09-24T09:44:41.587Z,14.00
2022-09-24T09:47:36.181Z,14.10
2022-09-24T09:50:15.075Z,14.00
2022-09-24T09:52:42.114Z,13.90
2022-09-24T09:55:22.122Z,13.90
2022-09-24T09:57:50.689Z,13.90
2022-09-24T10:00:35.110Z,14.00
2022-09-24T10:03:03.528Z,13.90
2022-09-24T10:05:31.225Z,14.00
2022-09-24T10:07:58.485Z,14.00
2022-09-24T10:10:28.655Z,13.90
2022-09-24T10:13:09.008Z,13.80
2022-09-24T10:15:49.467Z,13.90
2022-09-24T10:18:17.452Z,13.90
2022-09-24T10:20:52.006Z,14.00
2022-09-24T10:23:23.015Z,13.90
2022-09-24T10:25:54.077Z,13.90
2022-09-24T10:28:40.018Z,13.90
2022-09-24T10:31:18.966Z,13.90
2022-09-24T10:33:48.324Z,13.90
2022-09-24T10:36:20.877Z,14.00
2022-09-24T10:38:48.266Z,14.00
2022-09-24T10:41:17.438Z,14.20
2022-09-24T10:43:54.452Z,14.20
2022-09-24T10:46:24.320Z,14.20
2022-09-24T10:49:19.020Z,14.20
2022-09-24T10:52:10.457Z,14.10
2022-09-24T10:55:00.145Z,14.10
2022-09-24T10:57:41.992Z,14.00
2022-09-24T11:00:27.894Z,14.10
2022-09-24T11:03:13.786Z,14.10
2022-09-24T11:05:49.537Z,14.10
2022-09-24T11:08:33.373Z,14.20
2022-09-24T11:11:34.227Z,14.10
2022-09-24T11:14:24.537Z,14.10
2022-09-24T11:16:57.279Z,14.10
2022-09-24T11:19:42.632Z,14.10
2022-09-24T11:22:17.093Z,14.10
2022-09-24T11:25:02.117Z,14.10
2022-09-24T11:27:56.229Z,14.30
2022-09-24T11:30:27.246Z,14.30
2022-09-24T11:33:29.281Z,14.30
2022-09-24T11:36:23.870Z,14.50
2022-09-24T11:39:19.992Z,14.60
2022-09-24T11:42:16.709Z,14.70
2022-09-24T11:45:24.625Z,14.60
2022-09-24T11:47:54.375Z,14.60
2022-09-24T11:50:27.226Z,14.70
2022-09-24T11:53:08.655Z,14.60
2022-09-24T11:55:53.714Z,14.60
2022-09-24T11:58:36.037Z,14.50
2022-09-24T12:01:14.618Z,14.40
2022-09-24T12:03:47.703Z,14.50
2022-09-24T12:06:21.921Z,14.60
2022-09-24T12:09:10.693Z,14.70
2022-09-24T12:11:43.241Z,14.70
2022-09-24T12:14:15.316Z,14.70
2022-09-24T12:16:44.445Z,14.70
2022-09-24T12:19:32.927Z,14.80
2022-09-24T12:22:04.167Z,14.80
2022-09-24T12:24:36.520Z,14.80
2022-09-24T12:27:16.511Z,14.70
2022-09-24T12:30:11.074Z,14.80
2022-09-24T12:32:56.605Z,14.70
2022-09-24T12:35:47.786Z,14.70
2022-09-24T12:38:41.163Z,14.70
2022-09-24T12:41:44.875Z,14.60
2022-09-24T12:44:11.842Z,14.70
2022-09-24T12:46:54.403Z,14.60
2022-09-24T12:49:27.295Z,14.60
2022-09-24T12:51:57.310Z,14.50
2022-09-24T12:54:30.235Z,14.50
2022-09-24T12:57:06.262Z,14.50
2022-09-24T12:59:33.297Z,14.40
2022-09-24T13:02:26.002Z,14.40
2022-09-24T13:05:01.752Z,14.40
2022-09-24T13:07:33.142Z,14.40
2022-09-24T13:10:21.732Z,14.40
2022-09-24T13:12:49.241Z,14.50
2022-09-24T13:15:38.869Z,14.60
2022-09-24T13:18:11.756Z,14.70
2022-09-24T13:20:46.167Z,14.80
2022-09-24T13:23:22.016Z,14.70
2022-09-24T13:26:20.748Z,14.80
2022-09-24T13:28:50.307Z,14.90
2022-09-24T13:31:29.630Z,15.00
2022-09-24T13:34:03.951Z,15.00
2022-09-24T13:36:36.078Z,15.10
2022-09-24T13:39:23.474Z,15.20
2022-09-24T13:42:17.674Z,15.30
2022-09-24T13:44:55.566Z,15.40
2022-09-24T13:47:44.443Z,15.50
2022-09-24T13:50:32.562Z,15.50
2022-09-24T13:53:14.548Z,15.50
2022-09-24T13:55:46.767Z,15.50
2022-09-24T13:58:34.094Z,15.50
2022-09-24T14:01:12.551Z,15.50
2022-09-24T14:03:40.195Z,15.50
2022-09-24T14:06:12.717Z,15.50
2022-09-24T14:08:45.238Z,15.50
2022-09-24T14:11:19.048Z,15.40
2022-09-24T14:13:46.546Z,15.40
2022-09-24T14:16:19.274Z,15.40
2022-09-24T14:18:46.771Z,15.40
2022-09-24T14:21:16.611Z,15.50
2022-09-24T14:23:50.179Z,15.40
2022-09-24T14:26:31.085Z,15.30
2022-09-24T14:29:01.026Z,15.30
2022-09-24T14:31:28.320Z,15.40
2022-09-24T14:33:55.676Z,15.40
2022-09-24T14:36:28.287Z,15.30
2022-09-24T14:39:05.336Z,15.40
2022-09-24T14:41:35.401Z,15.40
2022-09-24T14:44:29.724Z,15.30
2022-09-24T14:46:59.807Z,15.20
2022-09-24T14:49:50.017Z,15.20
2022-09-24T14:52:36.269Z,15.10
2022-09-24T14:55:16.735Z,15.20
2022-09-24T14:57:48.569Z,15.30
2022-09-24T15:00:23.846Z,15.30
2022-09-24T15:03:16.054Z,15.30
2022-09-24T15:05:45.138Z,15.30
2022-09-24T15:08:30.660Z,15.30
2022-09-24T15:11:06.692Z,15.30
2022-09-24T15:13:36.108Z,15.20
2022-09-24T15:16:04.361Z,15.20
2022-09-24T15:18:31.704Z,15.20
2022-09-24T15:20:59.907Z,15.20
2022-09-24T15:23:26.932Z,15.00
2022-09-24T15:25:53.870Z,15.00
2022-09-24T15:28:22.793Z,15.00
2022-09-24T15:30:49.704Z,15.00
2022-09-24T15:33:17.605Z,15.00
2022-09-24T15:35:44.763Z,14.90
2022-09-24T15:38:19.705Z,14.90
2022-09-24T15:40:47.113Z,14.90
2022-09-24T15:43:25.010Z,14.80
2022-09-24T15:45:52.290Z,14.90
2022-09-24T15:48:19.269Z,15.00
2022-09-24T15:50:47.424Z,15.10
2022-09-24T15:53:32.453Z,15.10
2022-09-24T15:56:01.416Z,15.20
2022-09-24T15:58:28.308Z,15.20
2022-09-24T16:00:55.538Z,15.20
2022-09-24T16:03:28.202Z,15.00
2022-09-24T16:05:56.397Z,15.00
2022-09-24T16:08:23.541Z,14.80
2022-09-24T16:10:50.741Z,14.80
2022-09-24T16:13:18.846Z,14.70
2022-09-24T16:15:46.219Z,14.70
2022-09-24T16:18:15.071Z,14.70
2022-09-24T16:20:43.177Z,14.80
2022-09-24T16:23:18.033Z,14.70
2022-09-24T16:25:56.131Z,14.70
2022-09-24T16:28:23.670Z,14.80
2022-09-24T16:30:50.871Z,14.80
2022-09-24T16:33:17.879Z,14.90
2022-09-24T16:35:44.796Z,14.90
2022-09-24T16:38:12.325Z,14.80
2022-09-24T16:40:39.423Z,14.80
2022-09-24T16:43:06.907Z,14.90
2022-09-24T16:45:35.241Z,14.70
2022-09-24T16:48:02.385Z,14.60
2022-09-24T16:50:29.348Z,14.60
2022-09-24T16:52:56.315Z,14.50
2022-09-24T16:55:26.384Z,14.60
2022-09-24T16:57:53.431Z,14.50
2022-09-24T17:00:20.674Z,14.50
2022-09-24T17:02:48.563Z,14.50
2022-09-24T17:05:15.624Z,14.50
2022-09-24T17:07:43.454Z,14.40
2022-09-24T17:10:15.417Z,14.40
2022-09-24T17:12:49.100Z,14.40
2022-09-24T17:15:20.572Z,14.30
2022-09-24T17:17:50.218Z,14.30
2022-09-24T17:20:19.176Z,14.20
2022-09-24T17:22:48.809Z,14.30
2022-09-24T17:25:16.208Z,14.30
2022-09-24T17:27:45.107Z,14.40
2022-09-24T17:30:12.929Z,14.40
2022-09-24T17:32:39.791Z,14.40
2022-09-24T17:35:08.223Z,14.40
2022-09-24T17:37:35.665Z,14.30
2022-09-24T17:40:04.385Z,14.30
2022-09-24T17:42:32.257Z,14.20
2022-09-24T17:44:59.068Z,14.30
2022-09-24T17:47:47.249Z,14.30
2022-09-24T17:50:14.931Z,14.40
2022-09-24T17:52:41.898Z,14.40
2022-09-24T17:55:09.186Z,14.40
2022-09-24T17:57:36.117Z,14.40
2022-09-24T18:00:03.252Z,14.20
2022-09-24T18:02:30.221Z,14.20
2022-09-24T18:04:57.155Z,14.20
2022-09-24T18:07:24.943Z,14.10
2022-09-24T18:09:55.942Z,14.10
2022-09-24T18:12:22.974Z,14.10
2022-09-24T18:14:49.835Z,14.10
2022-09-24T18:17:16.641Z,14.10
2022-09-24T18:19:44.164Z,14.00
2022-09-24T18:22:12.578Z,14.00
2022-09-24T18:24:40.382Z,14.00
2022-09-24T18:27:07.930Z,14.00
2022-09-24T18:29:37.733Z,14.00
2022-09-24T18:32:05.773Z,14.00
2022-09-24T18:34:32.769Z,14.10
2022-09-24T18:37:00.220Z,14.10
2022-09-24T18:39:27.717Z,14.10
2022-09-24T18:41:55.266Z,14.10
2022-09-24T18:44:22.860Z,14.00
2022-09-24T18:46:49.985Z,14.10
2022-09-24T18:49:17.476Z,14.10
2022-09-24T18:51:45.466Z,14.20
2022-09-24T18:54:14.247Z,14.20
2022-09-24T18:56:42.832Z,14.20
2022-09-24T18:59:14.041Z,14.20
2022-09-24T19:01:42.676Z,14.30
2022-09-24T19:04:12.216Z,14.30
2022-09-24T19:06:42.275Z,14.20
2022-09-24T19:09:11.239Z,14.30
2022-09-24T19:11:39.197Z,14.30
2022-09-24T19:14:06.647Z,14.30
2022-09-24T19:16:34.340Z,14.40
2022-09-24T19:19:02.041Z,14.40
2022-09-24T19:21:30.664Z,14.30
2022-09-24T19:23:59.840Z,14.20
2022-09-24T19:26:30.991Z,14.10
2022-09-24T19:28:59.103Z,14.00
2022-09-24T19:31:32.280Z,14.10
2022-09-24T19:34:04.181Z,13.90
2022-09-24T19:36:36.224Z,13.80
2022-09-24T19:39:05.858Z,13.80
2022-09-24T19:41:32.791Z,13.80
2022-09-24T19:44:04.515Z,13.80
2022-09-24T19:46:34.624Z,13.70
2022-09-24T19:49:01.920Z,13.70
2022-09-24T19:51:30.923Z,13.80
2022-09-24T19:54:00.572Z,13.80
2022-09-24T19:56:28.535Z,13.80
2022-09-24T19:58:57.538Z,13.60
2022-09-24T20:01:30.495Z,13.60
2022-09-24T20:03:59.630Z,13.60
2022-09-24T20:06:29.310Z,13.70
2022-09-24T20:08:57.703Z,13.70
2022-09-24T20:11:25.771Z,13.60
2022-09-24T20:13:55.092Z,13.70
2022-09-24T20:16:26.339Z,13.70
2022-09-24T20:18:57.811Z,13.70
2022-09-24T20:21:32.239Z,13.70
2022-09-24T20:23:59.459Z,13.80
2022-09-24T20:26:45.209Z,13.80
2022-09-24T20:29:13.804Z,13.80
2022-09-24T20:31:42.290Z,13.70
2022-09-24T20:34:09.423Z,13.80
2022-09-24T20:36:36.479Z,13.80
2022-09-24T20:39:04.083Z,13.80
2022-09-24T20:41:31.030Z,13.80
2022-09-24T20:43:57.880Z,13.80
2022-09-24T20:46:27.790Z,13.90
2022-09-24T20:49:00.022Z,13.90
2022-09-24T20:51:33.689Z,13.90
2022-09-24T20:54:01.424Z,13.90
2022-09-24T20:56:30.887Z,13.80
2022-09-24T20:58:58.584Z,13.80
2022-09-24T21:01:25.613Z,13.80
2022-09-24T21:03:53.171Z,13.80
2022-09-24T21:06:23.632Z,13.80
2022-09-24T21:08:51.632Z,13.90
2022-09-24T21:11:21.453Z,13.90
2022-09-24T21:13:51.621Z,13.80
2022-09-24T21:16:23.908Z,13.80
2022-09-24T21:18:54.235Z,13.80
2022-09-24T21:21:27.306Z,13.80
2022-09-24T21:23:56.906Z,13.90
2022-09-24T21:26:25.072Z,13.80
2022-09-24T21:29:06.103Z,13.80
2022-09-24T21:31:33.736Z,13.80
2022-09-24T21:34:01.369Z,13.80
2022-09-24T21:36:31.763Z,13.80
2022-09-24T21:39:01.623Z,13.90
2022-09-24T21:41:34.075Z,13.80
2022-09-24T21:44:01.519Z,13.80
2022-09-24T21:46:31.366Z,13.80
2022-09-24T21:48:59.584Z,13.80
2022-09-24T21:51:27.672Z,13.80
2022-09-24T21:53:57.888Z,13.80
2022-09-24T21:56:25.012Z,13.80
2022-09-24T21:58:53.179Z,13.90
2022-09-24T22:01:28.635Z,13.90
2022-09-24T22:03:58.262Z,13.90
2022-09-24T22:06:29.043Z,14.00
2022-09-24T22:09:04.072Z,14.00
2022-09-24T22:11:31.217Z,14.00
2022-09-24T22:14:01.400Z,13.90
2022-09-24T22:16:30.491Z,13.80
2022-09-24T22:18:57.449Z,13.80
2022-09-24T22:21:24.925Z,13.70
2022-09-24T22:23:51.740Z,13.70
2022-09-24T22:26:19.015Z,13.80
2022-09-24T22:28:46.804Z,13.70
2022-09-24T22:31:16.301Z,13.70
2022-09-24T22:34:02.231Z,13.80
2022-09-24T22:36:30.703Z,13.70
2022-09-24T22:38:59.521Z,13.60
2022-09-24T22:41:30.817Z,13.50
2022-09-24T22:43:58.405Z,13.60
2022-09-24T22:46:27.468Z,13.50
2022-09-24T22:48:57.793Z,13.50
2022-09-24T22:51:28.231Z,13.60
2022-09-24T22:53:56.923Z,13.50
2022-09-24T22:56:25.449Z,13.60
2022-09-24T22:58:58.498Z,13.60
2022-09-24T23:01:33.621Z,13.60
2022-09-24T23:04:01.263Z,13.60
2022-09-24T23:06:30.300Z,13.60
2022-09-24T23:08:57.545Z,13.50
2022-09-24T23:11:29.723Z,13.40
2022-09-24T23:14:02.707Z,13.40
2022-09-24T23:16:35.712Z,13.40
2022-09-24T23:19:05.416Z,13.40
2022-09-24T23:21:33.297Z,13.30
2022-09-24T23:24:05.115Z,13.30
2022-09-24T23:26:33.384Z,13.20
2022-09-24T23:29:01.069Z,13.30
2022-09-24T23:31:30.733Z,13.30
2022-09-24T23:34:01.511Z,13.20
2022-09-24T23:36:33.788Z,13.30
2022-09-24T23:39:01.156Z,13.30
2022-09-24T23:41:29.972Z,13.30
2022-09-24T23:43:56.846Z,13.30
2022-09-24T23:46:24.123Z,13.40
2022-09-24T23:48:51.154Z,13.40
2022-09-24T23:51:17.932Z,13.30
2022-09-24T23:53:44.734Z,13.40
2022-09-24T23:56:12.293Z,13.40
2022-09-24T23:58:39.433Z,13.40
